sensor_id;sensor_type;location;lat;lon;timestamp;temperature;humidity
24454;DHT22;12627;50.860;5.714;2022-10-28T00:00:47;19.10;99.90
24454;DHT22;12627;50.860;5.714;2022-10-28T00:03:15;19.10;99.90
24454;DHT22;12627;50.860;5.714;2022-10-28T00:05:42;19.10;99.90
24454;DHT22;12627;50.860;5.714;2022-10-28T00:08:09;19.10;99.90
24454;DHT22;12627;50.860;5.714;2022-10-28T00:10:38;19.00;99.90
24454;DHT22;12627;50.860;5.714;2022-10-28T00:13:05;19.00;99.90
24454;DHT22;12627;50.860;5.714;2022-10-28T00:15:33;18.80;99.90
24454;DHT22;12627;50.860;5.714;2022-10-28T00:18:00;18.60;99.90
24454;DHT22;12627;50.860;5.714;2022-10-28T00:20:29;18.30;99.90
24454;DHT22;12627;50.860;5.714;2022-10-28T00:22:56;18.10;99.90
24454;DHT22;12627;50.860;5.714;2022-10-28T00:25:24;17.90;99.90
24454;DHT22;12627;50.860;5.714;2022-10-28T00:27:52;17.80;99.90
24454;DHT22;12627;50.860;5.714;2022-10-28T00:30:19;17.70;99.90
24454;DHT22;12627;50.860;5.714;2022-10-28T00:32:47;17.60;99.90
24454;DHT22;12627;50.860;5.714;2022-10-28T00:35:14;17.50;99.90
24454;DHT22;12627;50.860;5.714;2022-10-28T00:37:41;17.50;99.90
24454;DHT22;12627;50.860;5.714;2022-10-28T00:40:10;17.30;99.90
24454;DHT22;12627;50.860;5.714;2022-10-28T00:42:37;17.30;99.90
24454;DHT22;12627;50.860;5.714;2022-10-28T00:45:08;17.30;99.90
24454;DHT22;12627;50.860;5.714;2022-10-28T00:47:41;17.00;99.90
24454;DHT22;12627;50.860;5.714;2022-10-28T00:50:21;16.80;99.90
24454;DHT22;12627;50.860;5.714;2022-10-28T00:52:52;16.70;99.90
24454;DHT22;12627;50.860;5.714;2022-10-28T00:55:22;16.60;99.90
24454;DHT22;12627;50.860;5.714;2022-10-28T00:57:53;16.60;99.90
24454;DHT22;12627;50.860;5.714;2022-10-28T01:00:23;16.60;99.90
24454;DHT22;12627;50.860;5.714;2022-10-28T01:02:51;16.60;99.90
24454;DHT22;12627;50.860;5.714;2022-10-28T01:05:21;16.50;99.90
24454;DHT22;12627;50.860;5.714;2022-10-28T01:07:50;16.40;99.90
24454;DHT22;12627;50.860;5.714;2022-10-28T01:10:20;16.40;99.90
24454;DHT22;12627;50.860;5.714;2022-10-28T01:12:57;16.30;99.90
24454;DHT22;12627;50.860;5.714;2022-10-28T01:15:35;16.30;99.90
24454;DHT22;12627;50.860;5.714;2022-10-28T01:18:17;16.30;99.90
24454;DHT22;12627;50.860;5.714;2022-10-28T01:21:05;16.30;99.90
24454;DHT22;12627;50.860;5.714;2022-10-28T01:23:47;16.90;99.90
24454;DHT22;12627;50.860;5.714;2022-10-28T01:26:32;17.20;99.90
24454;DHT22;12627;50.860;5.714;2022-10-28T01:32:09;17.10;99.90
24454;DHT22;12627;50.860;5.714;2022-10-28T01:34:47;17.10;99.90
24454;DHT22;12627;50.860;5.714;2022-10-28T01:37:23;17.40;99.90
24454;DHT22;12627;50.860;5.714;2022-10-28T01:39:56;17.60;99.90
24454;DHT22;12627;50.860;5.714;2022-10-28T01:42:28;17.50;99.90
24454;DHT22;12627;50.860;5.714;2022-10-28T01:45:01;17.50;99.90
24454;DHT22;12627;50.860;5.714;2022-10-28T01:47:36;17.50;99.90
24454;DHT22;12627;50.860;5.714;2022-10-28T01:50:09;17.60;99.90
24454;DHT22;12627;50.860;5.714;2022-10-28T01:52:39;17.70;99.90
24454;DHT22;12627;50.860;5.714;2022-10-28T01:55:10;17.70;99.90
24454;DHT22;12627;50.860;5.714;2022-10-28T01:57:41;17.70;99.90
24454;DHT22;12627;50.860;5.714;2022-10-28T02:00:10;17.70;99.90
24454;DHT22;12627;50.860;5.714;2022-10-28T02:02:39;17.60;99.90
24454;DHT22;12627;50.860;5.714;2022-10-28T02:05:41;17.50;99.90
24454;DHT22;12627;50.860;5.714;2022-10-28T02:14:02;17.80;99.90
24454;DHT22;12627;50.860;5.714;2022-10-28T02:16:41;17.80;99.90
24454;DHT22;12627;50.860;5.714;2022-10-28T02:19:16;17.80;99.90
24454;DHT22;12627;50.860;5.714;2022-10-28T02:21:51;17.70;99.90
24454;DHT22;12627;50.860;5.714;2022-10-28T02:24:25;17.60;99.90
24454;DHT22;12627;50.860;5.714;2022-10-28T02:27:02;17.40;99.90
24454;DHT22;12627;50.860;5.714;2022-10-28T02:29:36;17.10;99.90
24454;DHT22;12627;50.860;5.714;2022-10-28T02:32:07;17.10;99.90
24454;DHT22;12627;50.860;5.714;2022-10-28T02:34:39;16.90;99.90
24454;DHT22;12627;50.860;5.714;2022-10-28T02:37:12;16.80;99.90
24454;DHT22;12627;50.860;5.714;2022-10-28T02:39:45;16.80;99.90
24454;DHT22;12627;50.860;5.714;2022-10-28T02:42:17;16.90;99.90
24454;DHT22;12627;50.860;5.714;2022-10-28T02:44:48;17.10;99.90
24454;DHT22;12627;50.860;5.714;2022-10-28T02:47:20;17.20;99.90
24454;DHT22;12627;50.860;5.714;2022-10-28T02:49:54;17.20;99.90
24454;DHT22;12627;50.860;5.714;2022-10-28T02:52:25;17.20;99.90
24454;DHT22;12627;50.860;5.714;2022-10-28T02:54:55;17.20;99.90
24454;DHT22;12627;50.860;5.714;2022-10-28T02:57:24;17.30;99.90
24454;DHT22;12627;50.860;5.714;2022-10-28T02:59:53;17.30;99.90
24454;DHT22;12627;50.860;5.714;2022-10-28T03:02:22;17.30;99.90
24454;DHT22;12627;50.860;5.714;2022-10-28T03:04:50;17.30;99.90
24454;DHT22;12627;50.860;5.714;2022-10-28T03:07:18;17.30;99.90
24454;DHT22;12627;50.860;5.714;2022-10-28T03:09:45;17.20;99.90
24454;DHT22;12627;50.860;5.714;2022-10-28T03:12:13;17.30;99.90
24454;DHT22;12627;50.860;5.714;2022-10-28T03:14:40;17.30;99.90
24454;DHT22;12627;50.860;5.714;2022-10-28T03:17:07;17.20;99.90
24454;DHT22;12627;50.860;5.714;2022-10-28T03:19:34;17.20;99.90
24454;DHT22;12627;50.860;5.714;2022-10-28T03:22:03;17.30;99.90
24454;DHT22;12627;50.860;5.714;2022-10-28T03:24:30;17.30;99.90
24454;DHT22;12627;50.860;5.714;2022-10-28T03:26:57;17.30;99.90
24454;DHT22;12627;50.860;5.714;2022-10-28T03:29:24;17.40;99.90
24454;DHT22;12627;50.860;5.714;2022-10-28T03:31:51;17.30;99.90
24454;DHT22;12627;50.860;5.714;2022-10-28T03:34:18;17.30;99.90
24454;DHT22;12627;50.860;5.714;2022-10-28T03:36:46;17.30;99.90
24454;DHT22;12627;50.860;5.714;2022-10-28T03:39:14;17.20;99.90
24454;DHT22;12627;50.860;5.714;2022-10-28T03:41:41;17.30;99.90
24454;DHT22;12627;50.860;5.714;2022-10-28T03:44:09;17.20;99.90
24454;DHT22;12627;50.860;5.714;2022-10-28T03:46:36;17.20;99.90
24454;DHT22;12627;50.860;5.714;2022-10-28T03:49:03;17.20;99.90
24454;DHT22;12627;50.860;5.714;2022-10-28T03:51:30;17.00;99.90
24454;DHT22;12627;50.860;5.714;2022-10-28T03:53:57;17.00;99.90
24454;DHT22;12627;50.860;5.714;2022-10-28T03:56:26;16.90;99.90
24454;DHT22;12627;50.860;5.714;2022-10-28T03:58:53;16.90;99.90
24454;DHT22;12627;50.860;5.714;2022-10-28T04:01:20;16.90;99.90
24454;DHT22;12627;50.860;5.714;2022-10-28T04:03:47;16.90;99.90
24454;DHT22;12627;50.860;5.714;2022-10-28T04:06:14;16.80;99.90
24454;DHT22;12627;50.860;5.714;2022-10-28T04:08:41;16.80;99.90
24454;DHT22;12627;50.860;5.714;2022-10-28T04:11:08;16.90;99.90
24454;DHT22;12627;50.860;5.714;2022-10-28T04:13:37;16.90;99.90
24454;DHT22;12627;50.860;5.714;2022-10-28T04:16:05;17.00;99.90
24454;DHT22;12627;50.860;5.714;2022-10-28T04:18:32;17.10;99.90
24454;DHT22;12627;50.860;5.714;2022-10-28T04:21:00;17.10;99.90
24454;DHT22;12627;50.860;5.714;2022-10-28T04:23:28;17.20;99.90
24454;DHT22;12627;50.860;5.714;2022-10-28T04:25:55;17.40;99.90
24454;DHT22;12627;50.860;5.714;2022-10-28T04:28:22;17.40;99.90
24454;DHT22;12627;50.860;5.714;2022-10-28T04:30:51;17.30;99.90
24454;DHT22;12627;50.860;5.714;2022-10-28T04:33:18;17.20;99.90
24454;DHT22;12627;50.860;5.714;2022-10-28T04:35:45;17.10;99.90
24454;DHT22;12627;50.860;5.714;2022-10-28T04:38:13;17.20;99.90
24454;DHT22;12627;50.860;5.714;2022-10-28T04:40:40;17.30;99.90
24454;DHT22;12627;50.860;5.714;2022-10-28T04:43:08;17.40;99.90
24454;DHT22;12627;50.860;5.714;2022-10-28T04:45:37;17.30;99.90
24454;DHT22;12627;50.860;5.714;2022-10-28T04:48:06;17.30;99.90
24454;DHT22;12627;50.860;5.714;2022-10-28T04:50:34;17.20;99.90
24454;DHT22;12627;50.860;5.714;2022-10-28T04:53:01;17.10;99.90
24454;DHT22;12627;50.860;5.714;2022-10-28T04:55:29;17.00;99.90
24454;DHT22;12627;50.860;5.714;2022-10-28T04:57:57;17.10;99.90
24454;DHT22;12627;50.860;5.714;2022-10-28T05:00:26;17.10;99.90
24454;DHT22;12627;50.860;5.714;2022-10-28T05:02:54;17.20;99.90
24454;DHT22;12627;50.860;5.714;2022-10-28T05:05:22;17.10;99.90
24454;DHT22;12627;50.860;5.714;2022-10-28T05:07:50;17.00;99.90
24454;DHT22;12627;50.860;5.714;2022-10-28T05:10:17;16.90;99.90
24454;DHT22;12627;50.860;5.714;2022-10-28T05:12:45;16.70;99.90
24454;DHT22;12627;50.860;5.714;2022-10-28T05:15:13;16.50;99.90
24454;DHT22;12627;50.860;5.714;2022-10-28T05:17:42;16.40;99.90
24454;DHT22;12627;50.860;5.714;2022-10-28T05:20:11;16.40;99.90
24454;DHT22;12627;50.860;5.714;2022-10-28T05:22:44;16.50;99.90
24454;DHT22;12627;50.860;5.714;2022-10-28T05:25:12;16.60;99.90
24454;DHT22;12627;50.860;5.714;2022-10-28T05:27:39;16.70;99.90
24454;DHT22;12627;50.860;5.714;2022-10-28T05:30:08;16.60;99.90
24454;DHT22;12627;50.860;5.714;2022-10-28T05:32:35;16.70;99.90
24454;DHT22;12627;50.860;5.714;2022-10-28T05:35:03;16.60;99.90
24454;DHT22;12627;50.860;5.714;2022-10-28T05:37:30;16.70;99.90
24454;DHT22;12627;50.860;5.714;2022-10-28T05:39:59;16.70;99.90
24454;DHT22;12627;50.860;5.714;2022-10-28T05:42:26;16.70;99.90
24454;DHT22;12627;50.860;5.714;2022-10-28T05:44:53;16.70;99.90
24454;DHT22;12627;50.860;5.714;2022-10-28T05:47:20;16.70;99.90
24454;DHT22;12627;50.860;5.714;2022-10-28T05:49:47;16.80;99.90
24454;DHT22;12627;50.860;5.714;2022-10-28T05:52:14;17.00;99.90
24454;DHT22;12627;50.860;5.714;2022-10-28T05:54:41;17.00;99.90
24454;DHT22;12627;50.860;5.714;2022-10-28T05:57:10;17.10;99.90
24454;DHT22;12627;50.860;5.714;2022-10-28T05:59:37;17.10;99.90
24454;DHT22;12627;50.860;5.714;2022-10-28T06:02:05;17.10;99.90
24454;DHT22;12627;50.860;5.714;2022-10-28T06:04:32;17.00;99.90
24454;DHT22;12627;50.860;5.714;2022-10-28T06:06:59;17.00;99.90
24454;DHT22;12627;50.860;5.714;2022-10-28T06:09:27;17.10;99.90
24454;DHT22;12627;50.860;5.714;2022-10-28T06:11:54;17.10;99.90
24454;DHT22;12627;50.860;5.714;2022-10-28T06:14:23;17.10;99.90
24454;DHT22;12627;50.860;5.714;2022-10-28T06:16:50;17.10;99.90
24454;DHT22;12627;50.860;5.714;2022-10-28T06:19:18;17.20;99.90
24454;DHT22;12627;50.860;5.714;2022-10-28T06:21:45;17.20;99.90
24454;DHT22;12627;50.860;5.714;2022-10-28T06:24:12;17.20;99.90
24454;DHT22;12627;50.860;5.714;2022-10-28T06:26:39;17.30;99.90
24454;DHT22;12627;50.860;5.714;2022-10-28T06:29:08;17.30;99.90
24454;DHT22;12627;50.860;5.714;2022-10-28T06:31:39;17.30;99.90
24454;DHT22;12627;50.860;5.714;2022-10-28T06:34:08;17.20;99.90
24454;DHT22;12627;50.860;5.714;2022-10-28T06:36:35;17.20;99.90
24454;DHT22;12627;50.860;5.714;2022-10-28T06:39:03;17.30;99.90
24454;DHT22;12627;50.860;5.714;2022-10-28T06:41:30;17.40;99.90
24454;DHT22;12627;50.860;5.714;2022-10-28T06:43:57;17.40;99.90
24454;DHT22;12627;50.860;5.714;2022-10-28T06:46:25;17.40;99.90
24454;DHT22;12627;50.860;5.714;2022-10-28T06:48:54;17.40;99.90
24454;DHT22;12627;50.860;5.714;2022-10-28T06:51:22;17.50;99.90
24454;DHT22;12627;50.860;5.714;2022-10-28T06:53:50;17.80;99.90
24454;DHT22;12627;50.860;5.714;2022-10-28T06:56:17;17.90;99.90
24454;DHT22;12627;50.860;5.714;2022-10-28T06:58:48;18.00;99.90
24454;DHT22;12627;50.860;5.714;2022-10-28T07:01:16;18.10;99.90
24454;DHT22;12627;50.860;5.714;2022-10-28T07:03:44;18.10;99.90
24454;DHT22;12627;50.860;5.714;2022-10-28T07:06:12;18.00;99.90
24454;DHT22;12627;50.860;5.714;2022-10-28T07:08:39;17.90;99.90
24454;DHT22;12627;50.860;5.714;2022-10-28T07:11:07;18.00;99.90
24454;DHT22;12627;50.860;5.714;2022-10-28T07:13:34;18.00;99.90
24454;DHT22;12627;50.860;5.714;2022-10-28T07:16:01;18.00;99.90
24454;DHT22;12627;50.860;5.714;2022-10-28T07:18:29;18.10;99.90
24454;DHT22;12627;50.860;5.714;2022-10-28T07:20:57;18.20;99.90
24454;DHT22;12627;50.860;5.714;2022-10-28T07:23:26;18.40;99.90
24454;DHT22;12627;50.860;5.714;2022-10-28T07:25:54;18.50;99.90
24454;DHT22;12627;50.860;5.714;2022-10-28T07:28:23;18.60;99.90
24454;DHT22;12627;50.860;5.714;2022-10-28T07:30:50;18.60;99.90
24454;DHT22;12627;50.860;5.714;2022-10-28T07:33:18;18.60;99.90
24454;DHT22;12627;50.860;5.714;2022-10-28T07:35:45;18.40;99.90
24454;DHT22;12627;50.860;5.714;2022-10-28T07:38:12;18.30;99.90
24454;DHT22;12627;50.860;5.714;2022-10-28T07:40:41;18.10;99.90
24454;DHT22;12627;50.860;5.714;2022-10-28T07:43:08;18.20;99.90
24454;DHT22;12627;50.860;5.714;2022-10-28T07:45:36;18.10;99.90
24454;DHT22;12627;50.860;5.714;2022-10-28T07:48:04;18.10;99.90
24454;DHT22;12627;50.860;5.714;2022-10-28T07:50:32;18.20;99.90
24454;DHT22;12627;50.860;5.714;2022-10-28T07:52:59;18.20;99.90
24454;DHT22;12627;50.860;5.714;2022-10-28T07:55:26;18.40;99.90
24454;DHT22;12627;50.860;5.714;2022-10-28T07:57:55;18.60;99.90
24454;DHT22;12627;50.860;5.714;2022-10-28T08:00:22;18.90;99.90
24454;DHT22;12627;50.860;5.714;2022-10-28T08:02:49;19.30;99.90
24454;DHT22;12627;50.860;5.714;2022-10-28T08:05:17;19.50;99.90
24454;DHT22;12627;50.860;5.714;2022-10-28T08:07:44;19.50;99.90
24454;DHT22;12627;50.860;5.714;2022-10-28T08:10:12;20.00;99.90
24454;DHT22;12627;50.860;5.714;2022-10-28T08:12:40;20.20;99.90
24454;DHT22;12627;50.860;5.714;2022-10-28T08:15:09;20.60;99.90
24454;DHT22;12627;50.860;5.714;2022-10-28T08:17:37;21.00;99.90
24454;DHT22;12627;50.860;5.714;2022-10-28T08:20:05;21.20;99.90
24454;DHT22;12627;50.860;5.714;2022-10-28T08:22:33;21.50;99.90
24454;DHT22;12627;50.860;5.714;2022-10-28T08:25:00;21.50;99.90
24454;DHT22;12627;50.860;5.714;2022-10-28T08:27:27;21.70;99.90
24454;DHT22;12627;50.860;5.714;2022-10-28T08:29:54;21.40;99.90
24454;DHT22;12627;50.860;5.714;2022-10-28T08:32:23;21.50;99.90
24454;DHT22;12627;50.860;5.714;2022-10-28T08:34:50;22.00;99.90
24454;DHT22;12627;50.860;5.714;2022-10-28T08:37:18;22.50;99.90
24454;DHT22;12627;50.860;5.714;2022-10-28T08:39:45;22.30;99.90
24454;DHT22;12627;50.860;5.714;2022-10-28T08:42:27;22.50;99.90
24454;DHT22;12627;50.860;5.714;2022-10-28T08:45:16;22.50;99.90
24454;DHT22;12627;50.860;5.714;2022-10-28T08:50:43;23.00;99.90
24454;DHT22;12627;50.860;5.714;2022-10-28T08:53:15;23.30;99.90
24454;DHT22;12627;50.860;5.714;2022-10-28T08:55:45;22.80;99.90
24454;DHT22;12627;50.860;5.714;2022-10-28T08:58:19;22.60;99.90
24454;DHT22;12627;50.860;5.714;2022-10-28T09:00:51;22.50;99.90
24454;DHT22;12627;50.860;5.714;2022-10-28T09:03:23;22.30;99.90
24454;DHT22;12627;50.860;5.714;2022-10-28T09:05:56;22.40;99.90
24454;DHT22;12627;50.860;5.714;2022-10-28T09:08:28;22.30;99.90
24454;DHT22;12627;50.860;5.714;2022-10-28T09:14:17;22.10;99.90
24454;DHT22;12627;50.860;5.714;2022-10-28T23:52:41;16.80;99.90
24454;DHT22;12627;50.860;5.714;2022-10-28T23:55:08;16.80;99.90
24454;DHT22;12627;50.860;5.714;2022-10-28T23:57:36;16.70;99.90
